sensor_id;sensor_type;location;lat;lon;timestamp;temperature;humidity
2106;DHT22;1059;52.548;13.408;2023-06-05T00:01:56;16.80;1.00
2106;DHT22;1059;52.548;13.408;2023-06-05T00:04:22;16.80;1.00
2106;DHT22;1059;52.548;13.408;2023-06-05T00:06:49;16.70;1.00
2106;DHT22;1059;52.548;13.408;2023-06-05T00:09:17;16.70;1.00
2106;DHT22;1059;52.548;13.408;2023-06-05T00:11:44;16.60;1.00
2106;DHT22;1059;52.548;13.408;2023-06-05T00:14:11;16.60;1.00
2106;DHT22;1059;52.548;13.408;2023-06-05T00:16:38;16.50;1.00
2106;DHT22;1059;52.548;13.408;2023-06-05T00:19:06;16.40;1.00
2106;DHT22;1059;52.548;13.408;2023-06-05T00:21:33;16.40;1.00
2106;DHT22;1059;52.548;13.408;2023-06-05T00:24:00;16.40;1.00
2106;DHT22;1059;52.548;13.408;2023-06-05T00:26:27;16.30;1.00
2106;DHT22;1059;52.548;13.408;2023-06-05T00:28:54;16.20;1.00
2106;DHT22;1059;52.548;13.408;2023-06-05T00:31:21;16.20;1.00
2106;DHT22;1059;52.548;13.408;2023-06-05T00:33:48;16.10;1.00
2106;DHT22;1059;52.548;13.408;2023-06-05T00:36:17;16.00;1.00
2106;DHT22;1059;52.548;13.408;2023-06-05T00:38:48;16.00;1.00
2106;DHT22;1059;52.548;13.408;2023-06-05T00:41:15;15.90;1.00
2106;DHT22;1059;52.548;13.408;2023-06-05T00:43:42;15.90;1.00
2106;DHT22;1059;52.548;13.408;2023-06-05T00:46:09;15.80;1.00
2106;DHT22;1059;52.548;13.408;2023-06-05T00:48:36;15.80;1.00
2106;DHT22;1059;52.548;13.408;2023-06-05T00:51:04;15.70;1.00
2106;DHT22;1059;52.548;13.408;2023-06-05T00:53:34;15.70;1.00
2106;DHT22;1059;52.548;13.408;2023-06-05T00:56:02;15.60;1.00
2106;DHT22;1059;52.548;13.408;2023-06-05T00:58:29;15.60;1.00
2106;DHT22;1059;52.548;13.408;2023-06-05T01:00:58;15.50;1.00
2106;DHT22;1059;52.548;13.408;2023-06-05T01:03:25;15.40;1.00
2106;DHT22;1059;52.548;13.408;2023-06-05T01:05:54;15.40;1.00
2106;DHT22;1059;52.548;13.408;2023-06-05T01:08:29;15.40;1.00
2106;DHT22;1059;52.548;13.408;2023-06-05T01:11:01;15.30;1.00
2106;DHT22;1059;52.548;13.408;2023-06-05T01:13:32;15.30;1.00
2106;DHT22;1059;52.548;13.408;2023-06-05T01:16:02;15.30;1.00
2106;DHT22;1059;52.548;13.408;2023-06-05T01:18:30;15.30;1.00
2106;DHT22;1059;52.548;13.408;2023-06-05T01:21:00;15.20;1.00
2106;DHT22;1059;52.548;13.408;2023-06-05T01:23:30;15.20;1.00
2106;DHT22;1059;52.548;13.408;2023-06-05T01:26:01;15.20;1.00
2106;DHT22;1059;52.548;13.408;2023-06-05T01:28:30;15.20;1.00
2106;DHT22;1059;52.548;13.408;2023-06-05T01:31:03;15.20;1.00
2106;DHT22;1059;52.548;13.408;2023-06-05T01:33:32;15.10;1.00
2106;DHT22;1059;52.548;13.408;2023-06-05T01:36:08;15.10;1.00
2106;DHT22;1059;52.548;13.408;2023-06-05T01:38:40;15.10;1.00
2106;DHT22;1059;52.548;13.408;2023-06-05T01:41:08;15.10;1.00
2106;DHT22;1059;52.548;13.408;2023-06-05T01:43:38;15.10;1.00
2106;DHT22;1059;52.548;13.408;2023-06-05T01:46:05;15.10;1.00
2106;DHT22;1059;52.548;13.408;2023-06-05T01:48:33;15.10;1.00
2106;DHT22;1059;52.548;13.408;2023-06-05T01:51:04;15.10;1.00
2106;DHT22;1059;52.548;13.408;2023-06-05T01:53:31;15.00;1.00
2106;DHT22;1059;52.548;13.408;2023-06-05T01:55:59;15.00;1.00
2106;DHT22;1059;52.548;13.408;2023-06-05T01:58:28;15.00;1.00
2106;DHT22;1059;52.548;13.408;2023-06-05T02:00:55;14.90;1.00
2106;DHT22;1059;52.548;13.408;2023-06-05T02:03:22;15.00;1.00
2106;DHT22;1059;52.548;13.408;2023-06-05T02:05:50;14.90;1.00
2106;DHT22;1059;52.548;13.408;2023-06-05T02:08:18;14.90;1.00
2106;DHT22;1059;52.548;13.408;2023-06-05T02:10:48;14.90;1.00
2106;DHT22;1059;52.548;13.408;2023-06-05T02:13:16;14.90;1.00
2106;DHT22;1059;52.548;13.408;2023-06-05T02:15:45;14.90;1.00
2106;DHT22;1059;52.548;13.408;2023-06-05T02:18:12;14.90;1.00
2106;DHT22;1059;52.548;13.408;2023-06-05T02:20:41;14.80;1.00
2106;DHT22;1059;52.548;13.408;2023-06-05T02:23:08;14.80;1.00
2106;DHT22;1059;52.548;13.408;2023-06-05T02:25:35;14.80;1.00
2106;DHT22;1059;52.548;13.408;2023-06-05T02:28:02;14.80;1.00
2106;DHT22;1059;52.548;13.408;2023-06-05T02:30:30;14.80;1.00
2106;DHT22;1059;52.548;13.408;2023-06-05T02:32:58;14.80;1.00
2106;DHT22;1059;52.548;13.408;2023-06-05T02:35:26;14.80;1.00
2106;DHT22;1059;52.548;13.408;2023-06-05T02:37:54;14.80;1.00
2106;DHT22;1059;52.548;13.408;2023-06-05T02:40:22;14.80;1.00
2106;DHT22;1059;52.548;13.408;2023-06-05T02:42:49;14.70;1.00
2106;DHT22;1059;52.548;13.408;2023-06-05T02:45:15;14.70;1.00
2106;DHT22;1059;52.548;13.408;2023-06-05T02:47:44;14.70;1.00
2106;DHT22;1059;52.548;13.408;2023-06-05T02:50:12;14.70;1.00
2106;DHT22;1059;52.548;13.408;2023-06-05T02:52:39;14.70;1.00
2106;DHT22;1059;52.548;13.408;2023-06-05T02:55:06;14.60;1.00
2106;DHT22;1059;52.548;13.408;2023-06-05T02:57:33;14.70;1.00
2106;DHT22;1059;52.548;13.408;2023-06-05T03:00:07;14.70;1.00
2106;DHT22;1059;52.548;13.408;2023-06-05T03:02:34;14.70;1.00
2106;DHT22;1059;52.548;13.408;2023-06-05T03:05:05;14.70;1.00
2106;DHT22;1059;52.548;13.408;2023-06-05T03:07:33;14.70;1.00
2106;DHT22;1059;52.548;13.408;2023-06-05T03:10:00;14.70;1.00
2106;DHT22;1059;52.548;13.408;2023-06-05T03:12:27;14.70;1.00
2106;DHT22;1059;52.548;13.408;2023-06-05T03:14:53;14.70;1.00
2106;DHT22;1059;52.548;13.408;2023-06-05T03:17:20;14.70;1.00
2106;DHT22;1059;52.548;13.408;2023-06-05T03:19:48;14.60;1.00
2106;DHT22;1059;52.548;13.408;2023-06-05T03:22:16;14.60;1.00
2106;DHT22;1059;52.548;13.408;2023-06-05T03:24:44;14.60;1.00
2106;DHT22;1059;52.548;13.408;2023-06-05T03:27:12;14.60;1.00
2106;DHT22;1059;52.548;13.408;2023-06-05T03:29:39;14.60;1.00
2106;DHT22;1059;52.548;13.408;2023-06-05T03:32:06;14.60;1.00
2106;DHT22;1059;52.548;13.408;2023-06-05T03:34:32;14.50;1.00
2106;DHT22;1059;52.548;13.408;2023-06-05T03:37:02;14.50;1.00
2106;DHT22;1059;52.548;13.408;2023-06-05T03:39:30;14.50;1.00
2106;DHT22;1059;52.548;13.408;2023-06-05T03:41:57;14.50;1.00
2106;DHT22;1059;52.548;13.408;2023-06-05T03:44:24;14.40;1.00
2106;DHT22;1059;52.548;13.408;2023-06-05T03:46:51;14.40;1.00
2106;DHT22;1059;52.548;13.408;2023-06-05T03:49:18;14.40;1.00
2106;DHT22;1059;52.548;13.408;2023-06-05T03:51:46;14.40;1.00
2106;DHT22;1059;52.548;13.408;2023-06-05T03:54:12;14.40;1.00
2106;DHT22;1059;52.548;13.408;2023-06-05T03:56:43;14.40;1.00
2106;DHT22;1059;52.548;13.408;2023-06-05T03:59:15;14.30;1.00
2106;DHT22;1059;52.548;13.408;2023-06-05T04:01:45;14.30;1.00
2106;DHT22;1059;52.548;13.408;2023-06-05T04:04:12;14.30;1.00
2106;DHT22;1059;52.548;13.408;2023-06-05T04:06:39;14.30;1.00
2106;DHT22;1059;52.548;13.408;2023-06-05T04:09:07;14.40;1.00
2106;DHT22;1059;52.548;13.408;2023-06-05T04:11:39;14.40;1.00
2106;DHT22;1059;52.548;13.408;2023-06-05T04:14:08;14.40;1.00
2106;DHT22;1059;52.548;13.408;2023-06-05T04:16:36;14.40;1.00
2106;DHT22;1059;52.548;13.408;2023-06-05T04:19:04;14.40;1.00
2106;DHT22;1059;52.548;13.408;2023-06-05T04:21:32;14.40;1.00
2106;DHT22;1059;52.548;13.408;2023-06-05T04:24:00;14.40;1.00
2106;DHT22;1059;52.548;13.408;2023-06-05T04:26:26;14.40;1.00
2106;DHT22;1059;52.548;13.408;2023-06-05T04:28:53;14.50;1.00
2106;DHT22;1059;52.548;13.408;2023-06-05T04:31:23;14.50;1.00
2106;DHT22;1059;52.548;13.408;2023-06-05T04:33:50;14.50;1.00
2106;DHT22;1059;52.548;13.408;2023-06-05T04:36:18;14.60;1.00
2106;DHT22;1059;52.548;13.408;2023-06-05T04:38:46;14.60;1.00
2106;DHT22;1059;52.548;13.408;2023-06-05T04:41:13;14.60;1.00
2106;DHT22;1059;52.548;13.408;2023-06-05T04:43:40;14.70;1.00
2106;DHT22;1059;52.548;13.408;2023-06-05T04:46:06;14.80;1.00
2106;DHT22;1059;52.548;13.408;2023-06-05T04:48:35;14.70;1.00
2106;DHT22;1059;52.548;13.408;2023-06-05T04:51:02;14.80;1.00
2106;DHT22;1059;52.548;13.408;2023-06-05T04:53:29;14.90;1.00
2106;DHT22;1059;52.548;13.408;2023-06-05T04:55:57;14.90;1.00
2106;DHT22;1059;52.548;13.408;2023-06-05T04:58:25;14.90;1.00
2106;DHT22;1059;52.548;13.408;2023-06-05T05:00:52;14.90;1.00
2106;DHT22;1059;52.548;13.408;2023-06-05T05:03:19;15.00;1.00
2106;DHT22;1059;52.548;13.408;2023-06-05T05:05:47;15.00;1.00
2106;DHT22;1059;52.548;13.408;2023-06-05T05:08:14;15.10;1.00
2106;DHT22;1059;52.548;13.408;2023-06-05T05:10:41;15.20;1.00
2106;DHT22;1059;52.548;13.408;2023-06-05T05:13:08;15.30;1.00
2106;DHT22;1059;52.548;13.408;2023-06-05T05:15:35;15.30;1.00
2106;DHT22;1059;52.548;13.408;2023-06-05T05:18:02;15.40;1.00
2106;DHT22;1059;52.548;13.408;2023-06-05T05:20:29;15.40;1.00
2106;DHT22;1059;52.548;13.408;2023-06-05T05:22:59;15.50;1.00
2106;DHT22;1059;52.548;13.408;2023-06-05T05:25:26;15.50;1.00
2106;DHT22;1059;52.548;13.408;2023-06-05T05:27:54;15.60;1.00
2106;DHT22;1059;52.548;13.408;2023-06-05T05:30:21;15.60;1.00
2106;DHT22;1059;52.548;13.408;2023-06-05T05:32:47;15.70;1.00
2106;DHT22;1059;52.548;13.408;2023-06-05T05:35:14;15.70;1.00
2106;DHT22;1059;52.548;13.408;2023-06-05T05:37:41;15.80;1.00
2106;DHT22;1059;52.548;13.408;2023-06-05T05:40:11;15.80;1.00
2106;DHT22;1059;52.548;13.408;2023-06-05T05:42:38;15.80;1.00
2106;DHT22;1059;52.548;13.408;2023-06-05T05:45:06;15.90;1.00
2106;DHT22;1059;52.548;13.408;2023-06-05T05:47:33;15.90;1.00
2106;DHT22;1059;52.548;13.408;2023-06-05T05:50:00;16.00;1.00
2106;DHT22;1059;52.548;13.408;2023-06-05T05:52:27;16.10;1.00
2106;DHT22;1059;52.548;13.408;2023-06-05T05:54:54;16.20;1.00
2106;DHT22;1059;52.548;13.408;2023-06-05T05:57:25;16.30;1.00
2106;DHT22;1059;52.548;13.408;2023-06-05T05:59:53;16.40;1.00
2106;DHT22;1059;52.548;13.408;2023-06-05T06:02:20;16.40;1.00
2106;DHT22;1059;52.548;13.408;2023-06-05T06:04:47;16.50;1.00
2106;DHT22;1059;52.548;13.408;2023-06-05T06:07:14;16.50;1.00
2106;DHT22;1059;52.548;13.408;2023-06-05T06:09:41;16.60;1.00
2106;DHT22;1059;52.548;13.408;2023-06-05T06:12:09;16.70;1.00
2106;DHT22;1059;52.548;13.408;2023-06-05T06:14:38;16.80;1.00
2106;DHT22;1059;52.548;13.408;2023-06-05T06:17:04;16.90;1.00
2106;DHT22;1059;52.548;13.408;2023-06-05T06:19:35;16.90;1.00
2106;DHT22;1059;52.548;13.408;2023-06-05T06:22:03;17.00;1.00
2106;DHT22;1059;52.548;13.408;2023-06-05T06:24:36;17.10;1.00
2106;DHT22;1059;52.548;13.408;2023-06-05T06:27:04;17.10;1.00
2106;DHT22;1059;52.548;13.408;2023-06-05T06:29:32;17.20;1.00
2106;DHT22;1059;52.548;13.408;2023-06-05T06:32:00;17.30;1.00
2106;DHT22;1059;52.548;13.408;2023-06-05T06:34:27;17.30;1.00
2106;DHT22;1059;52.548;13.408;2023-06-05T06:36:55;17.40;1.00
2106;DHT22;1059;52.548;13.408;2023-06-05T06:39:21;17.50;1.00
2106;DHT22;1059;52.548;13.408;2023-06-05T06:41:50;17.60;1.00
2106;DHT22;1059;52.548;13.408;2023-06-05T06:44:19;17.70;1.00
2106;DHT22;1059;52.548;13.408;2023-06-05T06:46:46;17.80;1.00
2106;DHT22;1059;52.548;13.408;2023-06-05T06:49:14;17.90;1.00
2106;DHT22;1059;52.548;13.408;2023-06-05T06:51:41;18.00;1.00
2106;DHT22;1059;52.548;13.408;2023-06-05T06:54:08;18.00;1.00
2106;DHT22;1059;52.548;13.408;2023-06-05T06:56:35;18.10;1.00
2106;DHT22;1059;52.548;13.408;2023-06-05T06:59:10;18.20;1.00
2106;DHT22;1059;52.548;13.408;2023-06-05T07:01:43;18.30;1.00
2106;DHT22;1059;52.548;13.408;2023-06-05T07:04:11;18.40;1.00
2106;DHT22;1059;52.548;13.408;2023-06-05T07:06:43;18.50;1.00
2106;DHT22;1059;52.548;13.408;2023-06-05T07:09:10;18.60;1.00
2106;DHT22;1059;52.548;13.408;2023-06-05T07:11:38;18.60;1.00
2106;DHT22;1059;52.548;13.408;2023-06-05T07:14:05;18.70;1.00
2106;DHT22;1059;52.548;13.408;2023-06-05T07:16:33;18.80;1.00
2106;DHT22;1059;52.548;13.408;2023-06-05T07:19:00;18.90;1.00
2106;DHT22;1059;52.548;13.408;2023-06-05T07:21:26;19.00;1.00
2106;DHT22;1059;52.548;13.408;2023-06-05T07:23:55;19.10;1.00
2106;DHT22;1059;52.548;13.408;2023-06-05T07:26:22;19.20;1.00
2106;DHT22;1059;52.548;13.408;2023-06-05T07:28:49;19.20;1.00
2106;DHT22;1059;52.548;13.408;2023-06-05T07:31:16;19.30;1.00
2106;DHT22;1059;52.548;13.408;2023-06-05T07:33:43;19.40;1.00
2106;DHT22;1059;52.548;13.408;2023-06-05T07:36:10;19.50;1.00
2106;DHT22;1059;52.548;13.408;2023-06-05T07:38:37;19.50;1.00
2106;DHT22;1059;52.548;13.408;2023-06-05T07:41:08;19.60;1.00
2106;DHT22;1059;52.548;13.408;2023-06-05T07:43:35;19.70;1.00
2106;DHT22;1059;52.548;13.408;2023-06-05T07:46:02;19.80;1.00
2106;DHT22;1059;52.548;13.408;2023-06-05T07:48:30;19.90;1.00
2106;DHT22;1059;52.548;13.408;2023-06-05T07:50:57;20.00;1.00
2106;DHT22;1059;52.548;13.408;2023-06-05T07:53:24;20.00;1.00
2106;DHT22;1059;52.548;13.408;2023-06-05T07:55:50;20.00;1.00
2106;DHT22;1059;52.548;13.408;2023-06-05T07:58:19;20.00;1.00
2106;DHT22;1059;52.548;13.408;2023-06-05T08:00:47;20.10;1.00
2106;DHT22;1059;52.548;13.408;2023-06-05T08:03:14;20.30;1.00
2106;DHT22;1059;52.548;13.408;2023-06-05T08:05:45;20.30;1.00
2106;DHT22;1059;52.548;13.408;2023-06-05T08:08:12;20.30;1.00
2106;DHT22;1059;52.548;13.408;2023-06-05T08:10:39;20.40;1.00
2106;DHT22;1059;52.548;13.408;2023-06-05T08:13:07;20.70;1.00
2106;DHT22;1059;52.548;13.408;2023-06-05T08:15:36;20.80;1.00
2106;DHT22;1059;52.548;13.408;2023-06-05T08:18:03;20.80;1.00
2106;DHT22;1059;52.548;13.408;2023-06-05T08:20:30;20.90;1.00
2106;DHT22;1059;52.548;13.408;2023-06-05T08:22:57;21.00;1.00
2106;DHT22;1059;52.548;13.408;2023-06-05T08:25:24;21.10;1.00
2106;DHT22;1059;52.548;13.408;2023-06-05T08:27:50;21.20;1.00
2106;DHT22;1059;52.548;13.408;2023-06-05T08:30:17;21.30;1.00
2106;DHT22;1059;52.548;13.408;2023-06-05T08:32:46;21.30;1.00
2106;DHT22;1059;52.548;13.408;2023-06-05T08:35:12;21.40;1.00
2106;DHT22;1059;52.548;13.408;2023-06-05T08:37:39;21.40;1.00
2106;DHT22;1059;52.548;13.408;2023-06-05T08:40:07;21.40;1.00
2106;DHT22;1059;52.548;13.408;2023-06-05T08:42:36;21.40;1.00
2106;DHT22;1059;52.548;13.408;2023-06-05T08:45:03;21.40;1.00
2106;DHT22;1059;52.548;13.408;2023-06-05T08:47:31;21.50;1.00
2106;DHT22;1059;52.548;13.408;2023-06-05T08:50:02;21.60;1.00
2106;DHT22;1059;52.548;13.408;2023-06-05T08:52:33;21.60;1.00
2106;DHT22;1059;52.548;13.408;2023-06-05T08:55:02;21.70;1.00
2106;DHT22;1059;52.548;13.408;2023-06-05T08:57:29;21.90;1.00
2106;DHT22;1059;52.548;13.408;2023-06-05T08:59:58;22.00;1.00
2106;DHT22;1059;52.548;13.408;2023-06-05T09:02:25;22.10;1.00
2106;DHT22;1059;52.548;13.408;2023-06-05T09:04:52;22.10;1.00
2106;DHT22;1059;52.548;13.408;2023-06-05T09:07:20;22.20;1.00
2106;DHT22;1059;52.548;13.408;2023-06-05T09:09:47;22.20;1.00
2106;DHT22;1059;52.548;13.408;2023-06-05T09:12:14;22.20;1.00
2106;DHT22;1059;52.548;13.408;2023-06-05T09:14:41;22.20;1.00
2106;DHT22;1059;52.548;13.408;2023-06-05T09:17:12;22.30;1.00
2106;DHT22;1059;52.548;13.408;2023-06-05T09:19:40;22.30;1.00
2106;DHT22;1059;52.548;13.408;2023-06-05T09:22:09;22.30;1.00
2106;DHT22;1059;52.548;13.408;2023-06-05T09:24:39;22.30;1.00
2106;DHT22;1059;52.548;13.408;2023-06-05T09:27:08;22.40;1.00
2106;DHT22;1059;52.548;13.408;2023-06-05T09:29:37;22.40;1.00
2106;DHT22;1059;52.548;13.408;2023-06-05T09:32:05;22.40;1.00
2106;DHT22;1059;52.548;13.408;2023-06-05T09:34:34;22.50;1.00
2106;DHT22;1059;52.548;13.408;2023-06-05T09:37:03;22.50;1.00
2106;DHT22;1059;52.548;13.408;2023-06-05T09:39:38;22.60;1.00
2106;DHT22;1059;52.548;13.408;2023-06-05T09:42:06;22.70;1.00
2106;DHT22;1059;52.548;13.408;2023-06-05T09:44:35;22.60;1.00
2106;DHT22;1059;52.548;13.408;2023-06-05T09:47:03;22.70;1.00
2106;DHT22;1059;52.548;13.408;2023-06-05T09:49:46;22.80;1.00
2106;DHT22;1059;52.548;13.408;2023-06-05T09:52:13;22.80;1.00
2106;DHT22;1059;52.548;13.408;2023-06-05T09:54:42;22.90;1.00
2106;DHT22;1059;52.548;13.408;2023-06-05T09:57:12;23.00;1.00
2106;DHT22;1059;52.548;13.408;2023-06-05T09:59:44;23.00;1.00
2106;DHT22;1059;52.548;13.408;2023-06-05T10:02:12;23.00;1.00
2106;DHT22;1059;52.548;13.408;2023-06-05T10:04:47;23.00;1.00
2106;DHT22;1059;52.548;13.408;2023-06-05T10:07:15;23.10;1.00
2106;DHT22;1059;52.548;13.408;2023-06-05T10:09:44;23.20;1.00
2106;DHT22;1059;52.548;13.408;2023-06-05T10:12:15;23.30;1.00
2106;DHT22;1059;52.548;13.408;2023-06-05T10:14:43;23.30;1.00
2106;DHT22;1059;52.548;13.408;2023-06-05T10:17:11;23.30;1.00
2106;DHT22;1059;52.548;13.408;2023-06-05T10:19:41;23.40;1.00
2106;DHT22;1059;52.548;13.408;2023-06-05T10:22:09;23.50;1.00
2106;DHT22;1059;52.548;13.408;2023-06-05T10:24:41;23.50;1.00
2106;DHT22;1059;52.548;13.408;2023-06-05T10:27:36;23.60;1.00
2106;DHT22;1059;52.548;13.408;2023-06-05T10:30:40;23.70;1.00
2106;DHT22;1059;52.548;13.408;2023-06-05T10:33:33;23.70;1.00
2106;DHT22;1059;52.548;13.408;2023-06-05T10:36:10;23.70;1.00
2106;DHT22;1059;52.548;13.408;2023-06-05T10:38:42;23.80;1.00
2106;DHT22;1059;52.548;13.408;2023-06-05T10:41:10;23.90;1.00
2106;DHT22;1059;52.548;13.408;2023-06-05T10:43:46;23.90;1.00
2106;DHT22;1059;52.548;13.408;2023-06-05T10:46:33;24.00;1.00
2106;DHT22;1059;52.548;13.408;2023-06-05T10:49:11;24.00;1.00
2106;DHT22;1059;52.548;13.408;2023-06-05T10:51:41;24.10;1.00
2106;DHT22;1059;52.548;13.408;2023-06-05T10:54:10;24.20;1.00
2106;DHT22;1059;52.548;13.408;2023-06-05T10:56:56;24.20;1.00
2106;DHT22;1059;52.548;13.408;2023-06-05T10:59:27;24.30;1.00
2106;DHT22;1059;52.548;13.408;2023-06-05T11:02:25;24.40;1.00
2106;DHT22;1059;52.548;13.408;2023-06-05T11:05:10;24.30;1.00
2106;DHT22;1059;52.548;13.408;2023-06-05T11:07:37;24.40;1.00
2106;DHT22;1059;52.548;13.408;2023-06-05T11:10:15;24.40;1.00
2106;DHT22;1059;52.548;13.408;2023-06-05T11:13:09;24.50;1.00
2106;DHT22;1059;52.548;13.408;2023-06-05T11:15:40;24.80;1.00
2106;DHT22;1059;52.548;13.408;2023-06-05T11:18:28;25.10;1.00
2106;DHT22;1059;52.548;13.408;2023-06-05T11:20:55;25.60;1.00
2106;DHT22;1059;52.548;13.408;2023-06-05T11:23:23;26.50;1.00
2106;DHT22;1059;52.548;13.408;2023-06-05T11:25:53;27.50;1.00
2106;DHT22;1059;52.548;13.408;2023-06-05T11:28:39;28.40;1.00
2106;DHT22;1059;52.548;13.408;2023-06-05T11:31:08;29.30;1.00
2106;DHT22;1059;52.548;13.408;2023-06-05T11:33:35;30.20;1.00
2106;DHT22;1059;52.548;13.408;2023-06-05T11:36:04;31.00;1.00
2106;DHT22;1059;52.548;13.408;2023-06-05T11:38:32;31.70;1.00
2106;DHT22;1059;52.548;13.408;2023-06-05T11:41:00;32.40;1.00
2106;DHT22;1059;52.548;13.408;2023-06-05T11:43:32;32.60;1.00
2106;DHT22;1059;52.548;13.408;2023-06-05T11:45:59;32.70;1.00
2106;DHT22;1059;52.548;13.408;2023-06-05T11:48:29;33.00;1.00
2106;DHT22;1059;52.548;13.408;2023-06-05T11:50:58;33.20;1.00
2106;DHT22;1059;52.548;13.408;2023-06-05T11:53:25;33.40;1.00
2106;DHT22;1059;52.548;13.408;2023-06-05T11:55:53;33.60;1.00
2106;DHT22;1059;52.548;13.408;2023-06-05T11:58:34;33.80;1.00
2106;DHT22;1059;52.548;13.408;2023-06-05T12:01:07;34.20;1.00
2106;DHT22;1059;52.548;13.408;2023-06-05T12:03:36;34.50;1.00
2106;DHT22;1059;52.548;13.408;2023-06-05T12:06:05;34.50;1.00
2106;DHT22;1059;52.548;13.408;2023-06-05T12:08:33;34.70;1.00
2106;DHT22;1059;52.548;13.408;2023-06-05T12:11:01;34.70;1.00
2106;DHT22;1059;52.548;13.408;2023-06-05T12:13:47;34.50;1.00
2106;DHT22;1059;52.548;13.408;2023-06-05T12:16:15;34.50;1.00
2106;DHT22;1059;52.548;13.408;2023-06-05T12:18:44;34.50;1.00
2106;DHT22;1059;52.548;13.408;2023-06-05T12:21:21;34.40;1.00
2106;DHT22;1059;52.548;13.408;2023-06-05T12:23:49;34.60;1.00
2106;DHT22;1059;52.548;13.408;2023-06-05T12:26:17;34.60;1.00
2106;DHT22;1059;52.548;13.408;2023-06-05T12:28:44;34.80;1.00
2106;DHT22;1059;52.548;13.408;2023-06-05T12:31:36;34.70;1.00
2106;DHT22;1059;52.548;13.408;2023-06-05T12:34:06;34.50;1.00
2106;DHT22;1059;52.548;13.408;2023-06-05T12:36:38;34.40;1.00
2106;DHT22;1059;52.548;13.408;2023-06-05T12:39:06;34.60;1.00
2106;DHT22;1059;52.548;13.408;2023-06-05T12:41:33;34.70;1.00
2106;DHT22;1059;52.548;13.408;2023-06-05T12:44:01;34.80;1.00
2106;DHT22;1059;52.548;13.408;2023-06-05T12:46:30;34.70;1.00
2106;DHT22;1059;52.548;13.408;2023-06-05T12:48:57;34.80;1.00
2106;DHT22;1059;52.548;13.408;2023-06-05T12:51:26;34.90;1.00
2106;DHT22;1059;52.548;13.408;2023-06-05T12:53:53;34.90;1.00
2106;DHT22;1059;52.548;13.408;2023-06-05T12:56:20;35.00;1.00
2106;DHT22;1059;52.548;13.408;2023-06-05T12:58:51;34.90;1.00
2106;DHT22;1059;52.548;13.408;2023-06-05T13:01:18;34.90;1.00
2106;DHT22;1059;52.548;13.408;2023-06-05T13:03:45;34.80;1.00
2106;DHT22;1059;52.548;13.408;2023-06-05T13:06:12;34.90;1.00
2106;DHT22;1059;52.548;13.408;2023-06-05T13:08:41;34.90;1.00
2106;DHT22;1059;52.548;13.408;2023-06-05T13:11:07;35.00;1.00
2106;DHT22;1059;52.548;13.408;2023-06-05T13:13:35;35.10;1.00
2106;DHT22;1059;52.548;13.408;2023-06-05T13:16:03;34.70;1.00
2106;DHT22;1059;52.548;13.408;2023-06-05T13:18:31;34.20;1.00
2106;DHT22;1059;52.548;13.408;2023-06-05T13:20:58;34.10;1.00
2106;DHT22;1059;52.548;13.408;2023-06-05T13:23:25;34.10;1.00
2106;DHT22;1059;52.548;13.408;2023-06-05T13:25:53;34.30;1.00
2106;DHT22;1059;52.548;13.408;2023-06-05T13:28:20;34.60;1.00
2106;DHT22;1059;52.548;13.408;2023-06-05T13:30:47;34.80;1.00
2106;DHT22;1059;52.548;13.408;2023-06-05T13:33:14;34.70;1.00
2106;DHT22;1059;52.548;13.408;2023-06-05T13:35:41;34.60;1.00
2106;DHT22;1059;52.548;13.408;2023-06-05T13:38:08;34.50;1.00
2106;DHT22;1059;52.548;13.408;2023-06-05T13:40:35;34.50;1.00
2106;DHT22;1059;52.548;13.408;2023-06-05T13:43:03;34.80;1.00
2106;DHT22;1059;52.548;13.408;2023-06-05T13:45:30;35.10;1.00
2106;DHT22;1059;52.548;13.408;2023-06-05T13:47:56;35.40;1.00
2106;DHT22;1059;52.548;13.408;2023-06-05T13:50:23;35.60;1.00
2106;DHT22;1059;52.548;13.408;2023-06-05T13:52:50;35.70;1.00
2106;DHT22;1059;52.548;13.408;2023-06-05T13:55:18;35.80;1.00
2106;DHT22;1059;52.548;13.408;2023-06-05T13:57:44;35.80;1.00
2106;DHT22;1059;52.548;13.408;2023-06-05T14:00:13;35.50;1.00
2106;DHT22;1059;52.548;13.408;2023-06-05T14:02:41;35.50;1.00
2106;DHT22;1059;52.548;13.408;2023-06-05T14:05:08;35.80;1.00
2106;DHT22;1059;52.548;13.408;2023-06-05T14:07:36;36.00;1.00
2106;DHT22;1059;52.548;13.408;2023-06-05T14:10:04;36.10;1.00
2106;DHT22;1059;52.548;13.408;2023-06-05T14:12:31;36.20;1.00
2106;DHT22;1059;52.548;13.408;2023-06-05T14:14:58;36.40;1.00
2106;DHT22;1059;52.548;13.408;2023-06-05T14:17:26;36.30;1.00
2106;DHT22;1059;52.548;13.408;2023-06-05T14:19:53;36.20;1.00
2106;DHT22;1059;52.548;13.408;2023-06-05T14:22:20;36.20;1.00
2106;DHT22;1059;52.548;13.408;2023-06-05T14:24:47;36.20;1.00
2106;DHT22;1059;52.548;13.408;2023-06-05T14:27:13;36.20;1.00
2106;DHT22;1059;52.548;13.408;2023-06-05T14:29:41;36.10;1.00
2106;DHT22;1059;52.548;13.408;2023-06-05T14:32:08;36.00;1.00
2106;DHT22;1059;52.548;13.408;2023-06-05T14:34:36;35.80;1.00
2106;DHT22;1059;52.548;13.408;2023-06-05T14:37:04;35.60;1.00
2106;DHT22;1059;52.548;13.408;2023-06-05T14:39:31;35.50;1.00
2106;DHT22;1059;52.548;13.408;2023-06-05T14:41:57;35.70;1.00
2106;DHT22;1059;52.548;13.408;2023-06-05T14:44:24;35.50;1.00
2106;DHT22;1059;52.548;13.408;2023-06-05T14:46:54;35.00;1.00
2106;DHT22;1059;52.548;13.408;2023-06-05T14:49:22;34.80;1.00
2106;DHT22;1059;52.548;13.408;2023-06-05T14:51:50;34.70;1.00
2106;DHT22;1059;52.548;13.408;2023-06-05T14:54:17;34.70;1.00
2106;DHT22;1059;52.548;13.408;2023-06-05T14:56:44;34.70;1.00
2106;DHT22;1059;52.548;13.408;2023-06-05T14:59:12;34.90;1.00
2106;DHT22;1059;52.548;13.408;2023-06-05T15:01:40;34.80;1.00
2106;DHT22;1059;52.548;13.408;2023-06-05T15:04:07;34.70;1.00
2106;DHT22;1059;52.548;13.408;2023-06-05T15:06:33;34.60;1.00
2106;DHT22;1059;52.548;13.408;2023-06-05T15:09:02;34.40;1.00
2106;DHT22;1059;52.548;13.408;2023-06-05T15:11:29;34.10;1.00
2106;DHT22;1059;52.548;13.408;2023-06-05T15:13:56;33.60;1.00
2106;DHT22;1059;52.548;13.408;2023-06-05T15:16:23;33.20;1.00
2106;DHT22;1059;52.548;13.408;2023-06-05T15:18:50;32.60;1.00
2106;DHT22;1059;52.548;13.408;2023-06-05T15:21:17;32.00;1.00
2106;DHT22;1059;52.548;13.408;2023-06-05T15:23:44;31.50;1.00
2106;DHT22;1059;52.548;13.408;2023-06-05T15:26:12;31.10;1.00
2106;DHT22;1059;52.548;13.408;2023-06-05T15:28:39;30.50;1.00
2106;DHT22;1059;52.548;13.408;2023-06-05T15:31:06;30.20;1.00
2106;DHT22;1059;52.548;13.408;2023-06-05T15:33:33;29.90;1.00
2106;DHT22;1059;52.548;13.408;2023-06-05T15:36:00;29.50;1.00
2106;DHT22;1059;52.548;13.408;2023-06-05T15:38:27;29.20;1.00
2106;DHT22;1059;52.548;13.408;2023-06-05T15:40:54;28.90;1.00
2106;DHT22;1059;52.548;13.408;2023-06-05T15:43:23;28.70;1.00
2106;DHT22;1059;52.548;13.408;2023-06-05T15:45:50;28.40;1.00
2106;DHT22;1059;52.548;13.408;2023-06-05T15:48:18;28.20;1.00
2106;DHT22;1059;52.548;13.408;2023-06-05T15:50:45;27.90;1.00
2106;DHT22;1059;52.548;13.408;2023-06-05T15:53:12;27.80;1.00
2106;DHT22;1059;52.548;13.408;2023-06-05T15:55:39;27.60;1.00
2106;DHT22;1059;52.548;13.408;2023-06-05T15:58:08;27.50;1.00
2106;DHT22;1059;52.548;13.408;2023-06-05T16:00:37;27.50;1.00
2106;DHT22;1059;52.548;13.408;2023-06-05T16:03:04;27.40;1.00
2106;DHT22;1059;52.548;13.408;2023-06-05T16:05:31;27.40;1.00
2106;DHT22;1059;52.548;13.408;2023-06-05T16:07:57;27.50;1.00
2106;DHT22;1059;52.548;13.408;2023-06-05T16:10:25;27.50;1.00
2106;DHT22;1059;52.548;13.408;2023-06-05T16:12:52;27.60;1.00